createdAt,value
2022-11-23T00:01:33.470Z,13.50
2022-11-23T00:04:12.605Z,14.55
2022-11-23T00:06:40.075Z,12.48
2022-11-23T00:09:07.650Z,11.85
2022-11-23T00:11:35.848Z,12.73
2022-11-23T00:14:02.836Z,13.63
2022-11-23T00:16:30.428Z,13.75
2022-11-23T00:19:00.044Z,13.50
2022-11-23T00:21:29.614Z,12.77
2022-11-23T00:23:56.941Z,13.50
2022-11-23T00:26:23.775Z,12.75
2022-11-23T00:28:50.526Z,13.45
2022-11-23T00:31:19.633Z,14.63
2022-11-23T00:33:54.785Z,13.40
2022-11-23T00:36:24.255Z,13.30
2022-11-23T00:38:54.199Z,13.55
2022-11-23T00:41:23.568Z,13.45
2022-11-23T00:43:50.519Z,13.30
2022-11-23T00:46:28.186Z,13.52
2022-11-23T00:48:56.404Z,13.55
2022-11-23T00:51:26.143Z,13.63
2022-11-23T00:53:53.626Z,14.20
2022-11-23T00:56:21.220Z,12.90
2022-11-23T00:58:52.824Z,13.60
2022-11-23T01:01:22.421Z,14.13
2022-11-23T01:03:54.322Z,14.48
2022-11-23T01:06:26.971Z,13.35
2022-11-23T01:09:03.808Z,13.77
2022-11-23T01:11:32.479Z,13.70
2022-11-23T01:14:01.362Z,13.40
2022-11-23T01:16:39.556Z,12.65
2022-11-23T01:19:10.335Z,11.82
2022-11-23T01:21:37.800Z,12.65
2022-11-23T01:24:18.357Z,13.65
2022-11-23T01:26:45.879Z,12.05
2022-11-23T01:29:13.117Z,12.02
2022-11-23T01:31:46.144Z,11.73
2022-11-23T01:34:15.187Z,11.15
2022-11-23T01:36:42.327Z,12.52
2022-11-23T01:39:10.864Z,12.02
2022-11-23T01:41:43.084Z,11.95
2022-11-23T01:44:41.522Z,12.25
2022-11-23T01:47:09.235Z,11.15
2022-11-23T01:53:52.219Z,11.63
2022-11-23T01:56:40.542Z,11.98
2022-11-23T01:59:13.019Z,11.93
2022-11-23T02:01:39.924Z,11.68
2022-11-23T02:04:11.325Z,13.15
2022-11-23T02:06:44.921Z,12.38
2022-11-23T02:09:11.608Z,12.95
2022-11-23T02:11:38.392Z,13.13
2022-11-23T02:14:05.459Z,12.90
2022-11-23T02:16:32.717Z,14.13
2022-11-23T02:18:59.986Z,13.50
2022-11-23T02:21:26.838Z,12.77
2022-11-23T02:24:17.910Z,12.40
2022-11-23T02:26:44.826Z,12.38
2022-11-23T02:29:22.169Z,11.90
2022-11-23T02:31:48.794Z,12.77
2022-11-23T02:34:17.625Z,13.50
2022-11-23T02:36:49.191Z,14.02
2022-11-23T02:39:34.696Z,13.90
2022-11-23T02:42:04.372Z,13.63
2022-11-23T02:44:37.725Z,12.75
2022-11-23T02:47:07.232Z,13.48
2022-11-23T02:49:34.353Z,14.00
2022-11-23T02:52:01.940Z,13.82
2022-11-23T02:54:29.354Z,11.82
2022-11-23T02:56:57.130Z,12.65
2022-11-23T02:59:23.823Z,13.07
2022-11-23T03:01:52.698Z,13.63
2022-11-23T03:04:25.901Z,12.35
2022-11-23T03:06:54.170Z,14.38
2022-11-23T03:09:20.889Z,14.05
2022-11-23T03:11:47.562Z,13.20
2022-11-23T03:14:14.549Z,14.57
2022-11-23T03:16:49.774Z,14.27
2022-11-23T03:19:18.391Z,14.43
2022-11-23T03:21:46.949Z,14.13
2022-11-23T03:24:13.550Z,14.68
2022-11-23T03:26:41.743Z,14.88
2022-11-23T03:29:10.388Z,13.77
2022-11-23T03:31:39.559Z,14.77
2022-11-23T03:34:10.714Z,14.60
2022-11-23T03:36:38.534Z,14.45
2022-11-23T03:39:05.373Z,14.27
2022-11-23T03:41:52.107Z,14.18
2022-11-23T03:44:21.442Z,14.52
2022-11-23T03:46:50.315Z,12.32
2022-11-23T03:49:17.289Z,13.68
2022-11-23T03:51:44.209Z,14.45
2022-11-23T03:54:10.984Z,13.85
2022-11-23T03:56:38.494Z,13.55
2022-11-23T03:59:05.213Z,13.00
2022-11-23T04:01:31.892Z,13.02
2022-11-23T04:04:03.738Z,16.20
2022-11-23T04:06:49.385Z,14.90
2022-11-23T04:09:20.297Z,13.98
2022-11-23T04:12:06.813Z,13.75
2022-11-23T04:14:36.225Z,14.20
2022-11-23T04:17:03.032Z,14.48
2022-11-23T04:19:30.814Z,14.60
2022-11-23T04:21:58.271Z,13.65
2022-11-23T04:24:26.982Z,12.95
2022-11-23T04:26:56.010Z,14.15
2022-11-23T04:29:24.097Z,14.50
2022-11-23T04:31:53.513Z,13.43
2022-11-23T04:34:21.176Z,14.02
2022-11-23T04:36:49.822Z,13.98
2022-11-23T04:39:18.547Z,14.35
2022-11-23T04:42:11.379Z,14.98
2022-11-23T04:44:38.426Z,14.68
2022-11-23T04:47:07.115Z,14.60
2022-11-23T04:49:36.840Z,15.38
2022-11-23T04:52:04.585Z,15.95
2022-11-23T04:54:36.384Z,15.23
2022-11-23T04:57:07.178Z,14.93
2022-11-23T04:59:34.578Z,15.88
2022-11-23T05:02:01.428Z,14.00
2022-11-23T05:04:44.090Z,15.18
2022-11-23T05:07:13.842Z,14.43
2022-11-23T05:09:44.114Z,15.73
2022-11-23T05:12:16.976Z,15.95
2022-11-23T05:14:44.247Z,15.90
2022-11-23T05:17:14.160Z,15.77
2022-11-23T05:19:41.823Z,15.18
2022-11-23T05:22:08.584Z,14.13
2022-11-23T05:24:37.062Z,14.82
2022-11-23T05:27:17.283Z,16.20
2022-11-23T05:29:44.786Z,13.63
2022-11-23T05:32:11.583Z,14.82
2022-11-23T05:34:38.785Z,16.33
2022-11-23T05:37:07.056Z,15.70
2022-11-23T05:39:35.266Z,15.57
2022-11-23T05:42:01.917Z,16.02
2022-11-23T05:47:05.294Z,15.98
2022-11-23T05:49:34.103Z,17.25
2022-11-23T05:52:02.954Z,16.42
2022-11-23T05:54:30.697Z,16.40
2022-11-23T05:57:12.786Z,16.60
2022-11-23T05:59:44.437Z,15.95
2022-11-23T06:02:16.597Z,15.90
2022-11-23T06:04:43.708Z,14.93
2022-11-23T06:07:14.871Z,16.42
2022-11-23T06:09:59.063Z,15.18
2022-11-23T06:12:28.253Z,15.60
2022-11-23T06:14:55.041Z,16.92
2022-11-23T06:17:25.099Z,15.85
2022-11-23T06:19:56.140Z,17.35
2022-11-23T06:22:23.176Z,16.73
2022-11-23T06:25:00.542Z,16.77
2022-11-23T06:27:30.194Z,16.60
2022-11-23T06:29:57.505Z,17.48
2022-11-23T06:32:27.215Z,16.70
2022-11-23T06:34:59.373Z,17.42
2022-11-23T06:39:55.439Z,16.50
2022-11-23T06:42:39.506Z,16.55
2022-11-23T06:45:11.426Z,17.10
2022-11-23T06:47:38.454Z,14.82
2022-11-23T06:50:05.905Z,15.88
2022-11-23T06:52:32.873Z,16.25
2022-11-23T06:54:59.489Z,16.20
2022-11-23T06:57:26.381Z,15.50
2022-11-23T06:59:54.107Z,16.63
2022-11-23T07:02:26.696Z,16.38
2022-11-23T07:04:54.964Z,16.48
2022-11-23T07:07:21.677Z,16.77
2022-11-23T07:09:59.291Z,15.50
2022-11-23T07:15:10.949Z,15.43
2022-11-23T07:17:44.345Z,16.67
2022-11-23T07:20:12.670Z,16.00
2022-11-23T07:22:39.499Z,15.55
2022-11-23T07:25:06.411Z,18.65
2022-11-23T07:27:33.029Z,17.92
2022-11-23T07:30:01.675Z,18.63
2022-11-23T07:32:28.390Z,19.30
2022-11-23T07:37:38.757Z,17.92
2022-11-23T07:40:06.455Z,20.45
2022-11-23T07:42:39.812Z,18.83
2022-11-23T07:47:39.151Z,19.10
2022-11-23T07:50:10.393Z,18.95
2022-11-23T07:52:38.897Z,18.58
2022-11-23T07:55:06.462Z,18.20
2022-11-23T07:57:33.062Z,18.75
2022-11-23T08:00:02.702Z,19.13
2022-11-23T08:02:52.812Z,19.75
2022-11-23T08:05:26.349Z,18.50
2022-11-23T08:07:59.174Z,20.75
2022-11-23T08:10:30.556Z,19.83
2022-11-23T08:13:02.891Z,20.60
2022-11-23T08:15:30.122Z,20.45
2022-11-23T08:17:58.317Z,22.23
2022-11-23T08:20:25.629Z,21.83
2022-11-23T08:22:52.691Z,23.45
2022-11-23T08:25:19.449Z,45.47
2022-11-23T08:27:46.065Z,25.20
2022-11-23T08:30:13.324Z,25.70
2022-11-23T08:32:39.934Z,24.35
2022-11-23T08:35:06.857Z,25.70
2022-11-23T08:37:33.553Z,24.83
2022-11-23T08:40:00.152Z,29.10
2022-11-23T08:42:26.867Z,26.42
2022-11-23T08:44:53.465Z,24.52
2022-11-23T08:47:20.096Z,24.38
2022-11-23T08:49:46.714Z,24.80
2022-11-23T08:52:13.334Z,24.60
2022-11-23T08:54:39.926Z,24.90
2022-11-23T08:57:06.531Z,22.50
2022-11-23T08:59:34.056Z,23.33
2022-11-23T09:02:00.726Z,22.48
2022-11-23T09:04:30.923Z,21.63
2022-11-23T09:06:57.746Z,21.75
2022-11-23T09:09:24.322Z,22.35
2022-11-23T09:11:51.265Z,22.27
2022-11-23T09:14:18.333Z,23.60
2022-11-23T09:16:44.953Z,23.10
2022-11-23T09:19:13.975Z,22.98
2022-11-23T09:21:42.697Z,23.70
2022-11-23T09:24:12.019Z,22.27
2022-11-23T09:26:39.450Z,23.73
2022-11-23T09:29:07.915Z,23.52
2022-11-23T09:31:35.942Z,21.92
2022-11-23T09:34:03.473Z,21.85
2022-11-23T09:36:30.465Z,26.25
2022-11-23T09:38:57.708Z,27.67
2022-11-23T09:41:41.070Z,27.63
2022-11-23T09:44:24.290Z,26.80
2022-11-23T09:46:59.701Z,27.10
2022-11-23T09:49:47.214Z,27.23
2022-11-23T09:52:23.347Z,28.45
2022-11-23T09:54:56.852Z,26.83
2022-11-23T09:57:30.680Z,24.33
2022-11-23T10:00:06.781Z,30.17
2022-11-23T10:02:39.979Z,31.52
2022-11-23T10:05:10.883Z,31.00
2022-11-23T10:07:56.081Z,29.70
2022-11-23T10:10:39.385Z,29.88
2022-11-23T10:13:42.930Z,31.52
2022-11-23T10:16:24.046Z,33.67
2022-11-23T10:19:03.040Z,31.70
2022-11-23T10:21:50.600Z,28.77
2022-11-23T10:24:19.988Z,33.63
2022-11-23T10:26:49.633Z,31.00
2022-11-23T10:29:35.840Z,29.77
2022-11-23T10:32:04.837Z,28.10
2022-11-23T10:34:56.020Z,34.72
2022-11-23T10:37:22.849Z,34.97
2022-11-23T10:39:49.580Z,33.47
2022-11-23T10:42:43.257Z,34.30
2022-11-23T10:45:28.134Z,32.25
2022-11-23T10:47:59.512Z,33.55
2022-11-23T10:50:37.259Z,35.05
2022-11-23T10:53:09.564Z,29.70
2022-11-23T10:55:54.931Z,29.75
2022-11-23T11:01:26.584Z,34.28
2022-11-23T11:03:55.204Z,27.95
2022-11-23T11:06:27.339Z,34.85
2022-11-23T11:08:56.202Z,33.97
2022-11-23T11:11:28.612Z,34.88
2022-11-23T11:14:14.809Z,27.48
2022-11-23T11:16:53.475Z,28.63
2022-11-23T11:19:33.051Z,29.58
2022-11-23T11:22:01.746Z,30.98
2022-11-23T11:24:38.368Z,29.20
2022-11-23T11:27:17.329Z,27.75
2022-11-23T11:29:43.895Z,27.20
2022-11-23T11:32:14.751Z,28.58
2022-11-23T11:34:45.885Z,27.00
2022-11-23T11:37:23.512Z,27.52
2022-11-23T11:40:26.397Z,27.27
2022-11-23T11:43:15.877Z,28.45
2022-11-23T11:46:21.857Z,28.30
2022-11-23T11:48:55.438Z,27.95
2022-11-23T11:51:29.821Z,29.25
2022-11-23T11:54:21.080Z,29.88
2022-11-23T11:56:54.224Z,28.95
2022-11-23T11:59:32.542Z,29.95
2022-11-23T12:01:59.429Z,27.55
2022-11-23T12:04:40.394Z,27.02
2022-11-23T12:07:27.194Z,27.05
2022-11-23T12:10:00.153Z,28.02
2022-11-23T12:12:30.007Z,29.08
2022-11-23T12:14:57.026Z,27.08
2022-11-23T12:17:38.699Z,27.58
2022-11-23T12:20:22.697Z,26.95
2022-11-23T12:23:16.333Z,28.40
2022-11-23T12:26:05.989Z,24.27
2022-11-23T12:29:01.395Z,27.33
2022-11-23T12:31:42.059Z,25.23
2022-11-23T12:34:24.216Z,26.05
2022-11-23T12:37:24.893Z,24.70
2022-11-23T12:40:13.313Z,24.98
2022-11-23T12:42:52.880Z,25.63
2022-11-23T12:45:27.383Z,25.85
2022-11-23T12:48:37.033Z,24.45
2022-11-23T12:51:22.437Z,25.20
2022-11-23T12:56:23.276Z,25.67
2022-11-23T12:58:52.712Z,25.35
2022-11-23T13:01:47.142Z,24.50
2022-11-23T13:04:35.471Z,25.35
2022-11-23T13:07:28.882Z,25.92
2022-11-23T13:10:19.518Z,26.63
2022-11-23T13:13:16.397Z,25.60
2022-11-23T13:15:49.036Z,25.95
2022-11-23T13:18:50.374Z,25.80
2022-11-23T13:21:37.342Z,25.25
2022-11-23T13:24:04.418Z,26.05
2022-11-23T13:26:31.558Z,26.90
2022-11-23T13:28:59.003Z,26.42
2022-11-23T13:31:31.441Z,25.20
2022-11-23T13:34:04.067Z,29.15
2022-11-23T13:37:04.255Z,36.15
2022-11-23T13:39:43.650Z,32.75
2022-11-23T13:42:11.082Z,28.17
2022-11-23T13:44:37.849Z,28.00
2022-11-23T13:47:14.702Z,29.63
2022-11-23T13:49:50.349Z,27.05
2022-11-23T13:52:23.186Z,25.83
2022-11-23T13:55:00.557Z,30.38
2022-11-23T13:57:31.417Z,28.48
2022-11-23T14:00:36.532Z,27.17
2022-11-23T14:03:41.032Z,27.30
2022-11-23T14:06:33.139Z,28.88
2022-11-23T14:09:12.442Z,25.20
2022-11-23T14:12:08.475Z,25.50
2022-11-23T14:14:55.034Z,25.75
2022-11-23T14:17:48.461Z,27.48
2022-11-23T14:20:45.357Z,26.27
2022-11-23T14:23:54.685Z,29.35
2022-11-23T14:26:51.385Z,29.13
2022-11-23T14:30:00.584Z,29.30
2022-11-23T14:33:04.081Z,28.27
2022-11-23T14:35:57.534Z,31.60
2022-11-23T14:38:55.218Z,30.88
2022-11-23T14:41:28.210Z,38.35
2022-11-23T14:43:57.099Z,32.65
2022-11-23T14:46:27.107Z,28.65
2022-11-23T14:49:04.649Z,26.80
2022-11-23T14:51:32.649Z,26.88
2022-11-23T14:54:02.514Z,26.65
2022-11-23T14:56:49.705Z,26.58
2022-11-23T14:59:19.393Z,28.30
2022-11-23T15:01:54.685Z,25.63
2022-11-23T15:04:29.148Z,27.00
2022-11-23T15:07:02.959Z,27.50
2022-11-23T15:09:53.236Z,26.50
2022-11-23T15:12:25.966Z,27.60
2022-11-23T15:14:54.239Z,22.65
2022-11-23T15:17:22.112Z,23.85
2022-11-23T15:19:58.054Z,23.20
2022-11-23T15:22:25.479Z,23.92
2022-11-23T15:24:52.698Z,24.58
2022-11-23T15:27:28.154Z,26.98
2022-11-23T15:29:59.974Z,24.25
2022-11-23T15:32:31.395Z,27.45
2022-11-23T15:35:07.925Z,25.23
2022-11-23T15:37:47.193Z,27.02
2022-11-23T15:40:15.900Z,25.27
2022-11-23T15:42:47.232Z,28.00
2022-11-23T15:45:52.835Z,27.08
2022-11-23T15:48:23.822Z,24.90
2022-11-23T15:50:54.441Z,26.10
2022-11-23T15:53:26.347Z,24.15
2022-11-23T15:55:54.452Z,25.90
2022-11-23T15:58:21.787Z,25.90
2022-11-23T16:00:51.781Z,32.47
2022-11-23T16:03:30.543Z,23.63
2022-11-23T16:06:12.458Z,34.08
2022-11-23T16:08:40.889Z,24.13
2022-11-23T16:11:27.125Z,24.65
2022-11-23T16:14:11.213Z,26.13
2022-11-23T16:16:42.695Z,28.25
2022-11-23T16:19:31.581Z,26.48
2022-11-23T16:22:04.029Z,39.97
2022-11-23T16:24:33.634Z,38.83
2022-11-23T16:27:01.713Z,39.25
2022-11-23T16:29:36.745Z,37.95
2022-11-23T16:32:06.940Z,36.78
2022-11-23T16:34:34.358Z,40.00
2022-11-23T16:37:03.757Z,38.95
2022-11-23T16:39:30.380Z,33.53
2022-11-23T16:41:57.151Z,32.65
2022-11-23T16:44:23.878Z,40.17
2022-11-23T16:46:50.605Z,60.90
2022-11-23T16:49:23.245Z,50.65
2022-11-23T16:51:57.019Z,29.50
2022-11-23T16:54:34.085Z,27.08
2022-11-23T16:57:00.785Z,28.15
2022-11-23T16:59:27.425Z,25.88
2022-11-23T17:01:57.262Z,25.55
2022-11-23T17:04:25.112Z,26.10
2022-11-23T17:06:51.829Z,34.67
2022-11-23T17:09:18.522Z,35.03
2022-11-23T17:11:48.195Z,33.38
2022-11-23T17:14:18.832Z,33.08
2022-11-23T17:16:46.840Z,33.88
2022-11-23T17:19:19.723Z,31.60
2022-11-23T17:21:46.713Z,30.30
2022-11-23T17:24:14.078Z,33.33
2022-11-23T17:26:44.219Z,56.10
2022-11-23T17:29:14.365Z,39.55
2022-11-23T17:31:43.327Z,34.67
2022-11-23T17:34:11.951Z,32.20
2022-11-23T17:36:38.899Z,28.67
2022-11-23T17:39:05.883Z,31.80
2022-11-23T17:41:32.552Z,29.50
2022-11-23T17:43:59.876Z,29.77
2022-11-23T17:46:31.086Z,32.92
2022-11-23T17:48:59.003Z,40.90
2022-11-23T17:51:25.989Z,31.63
2022-11-23T17:53:52.603Z,26.92
2022-11-23T17:56:21.841Z,24.08
2022-11-23T17:58:50.349Z,23.25
2022-11-23T18:01:18.995Z,23.58
2022-11-23T18:03:46.549Z,20.70
2022-11-23T18:06:21.590Z,20.80
2022-11-23T18:11:16.303Z,21.38
2022-11-23T18:13:43.528Z,21.15
2022-11-23T18:16:10.756Z,21.05
2022-11-23T18:18:37.957Z,21.60
2022-11-23T18:21:05.635Z,22.15
2022-11-23T18:23:32.327Z,21.23
2022-11-23T18:26:01.240Z,21.15
2022-11-23T18:28:28.359Z,21.20
2022-11-23T18:30:55.302Z,22.65
2022-11-23T18:33:22.745Z,22.52
2022-11-23T18:35:49.566Z,27.80
2022-11-23T18:38:16.417Z,22.20
2022-11-23T18:40:43.026Z,21.98
2022-11-23T18:43:09.677Z,23.98
2022-11-23T18:45:36.337Z,22.58
2022-11-23T18:48:03.089Z,21.33
2022-11-23T18:50:29.764Z,23.27
2022-11-23T18:52:56.454Z,22.23
2022-11-23T18:55:23.412Z,24.00
2022-11-23T18:57:54.306Z,22.98
2022-11-23T19:00:22.149Z,30.10
2022-11-23T19:02:56.715Z,23.75
2022-11-23T19:05:24.825Z,23.10
2022-11-23T19:07:51.498Z,23.77
2022-11-23T19:10:19.598Z,22.50
2022-11-23T19:12:46.483Z,26.90
2022-11-23T19:15:13.206Z,23.25
2022-11-23T19:17:39.968Z,22.83
2022-11-23T19:20:08.277Z,21.88
2022-11-23T19:22:35.582Z,22.55
2022-11-23T19:25:02.455Z,24.20
2022-11-23T19:27:29.122Z,21.45
2022-11-23T19:29:55.679Z,21.25
2022-11-23T19:32:22.414Z,22.92
2022-11-23T19:34:49.058Z,24.30
2022-11-23T19:37:15.642Z,20.42
2022-11-23T19:39:42.231Z,20.27
2022-11-23T19:42:08.975Z,23.35
2022-11-23T19:44:35.573Z,21.48
2022-11-23T19:47:03.798Z,20.08
2022-11-23T19:49:33.076Z,20.05
2022-11-23T19:51:59.818Z,20.63
2022-11-23T19:54:26.391Z,17.92
2022-11-23T19:56:53.182Z,19.35
2022-11-23T19:59:19.749Z,17.27
2022-11-23T20:01:46.444Z,17.40
2022-11-23T20:04:13.148Z,18.02
2022-11-23T20:06:42.279Z,16.50
2022-11-23T20:09:11.549Z,18.02
2022-11-23T20:11:39.762Z,16.80
2022-11-23T20:14:07.961Z,16.05
2022-11-23T20:16:34.716Z,14.00
2022-11-23T20:19:04.217Z,14.63
2022-11-23T20:21:32.722Z,14.10
2022-11-23T20:24:04.762Z,14.13
2022-11-23T20:26:33.873Z,14.07
2022-11-23T20:29:00.654Z,13.00
2022-11-23T20:31:29.501Z,13.60
2022-11-23T20:33:59.530Z,15.02
2022-11-23T20:36:31.889Z,14.00
2022-11-23T20:39:02.674Z,13.90
2022-11-23T20:41:32.578Z,13.40
2022-11-23T20:44:11.347Z,14.13
2022-11-23T20:47:00.729Z,13.98
2022-11-23T20:49:25.283Z,14.43
2022-11-23T20:51:51.900Z,15.02
2022-11-23T20:54:18.883Z,15.27
2022-11-23T20:56:45.697Z,16.90
2022-11-23T20:59:12.456Z,19.10
2022-11-23T21:01:40.548Z,16.13
2022-11-23T21:04:08.706Z,16.15
2022-11-23T21:06:38.968Z,15.55
2022-11-23T21:09:07.645Z,17.38
2022-11-23T21:11:53.031Z,15.60
2022-11-23T21:14:21.918Z,18.35
2022-11-23T21:16:57.581Z,17.10
2022-11-23T21:19:32.927Z,18.50
2022-11-23T21:22:03.750Z,18.02
2022-11-23T21:24:30.395Z,15.55
2022-11-23T21:26:59.965Z,13.70
2022-11-23T21:29:29.307Z,13.27
2022-11-23T21:31:56.268Z,14.00
2022-11-23T21:34:22.930Z,13.52
2022-11-23T21:36:50.392Z,15.02
2022-11-23T21:39:17.605Z,13.82
2022-11-23T21:41:45.126Z,13.57
2022-11-23T21:44:12.056Z,15.68
2022-11-23T21:46:40.424Z,15.57
2022-11-23T21:49:07.722Z,14.95
2022-11-23T21:51:35.977Z,13.85
2022-11-23T21:54:05.325Z,12.60
2022-11-23T21:56:32.360Z,13.55
2022-11-23T21:58:59.730Z,13.98
2022-11-23T22:01:31.845Z,12.75
2022-11-23T22:04:18.929Z,13.32
2022-11-23T22:06:45.781Z,13.30
2022-11-23T22:09:13.037Z,13.13
2022-11-23T22:11:41.697Z,13.55
2022-11-23T22:14:13.558Z,13.93
2022-11-23T22:16:45.932Z,13.77
2022-11-23T22:19:14.573Z,15.05
2022-11-23T22:21:42.833Z,14.80
2022-11-23T22:24:14.977Z,14.63
2022-11-23T22:26:42.060Z,14.20
2022-11-23T22:29:09.742Z,13.80
2022-11-23T22:31:36.781Z,14.45
2022-11-23T22:34:05.724Z,14.18
2022-11-23T22:36:32.847Z,14.43
2022-11-23T22:39:02.490Z,14.00
2022-11-23T22:41:30.593Z,13.95
2022-11-23T22:43:57.400Z,13.48
2022-11-23T22:46:25.406Z,13.88
2022-11-23T22:48:52.703Z,14.07
2022-11-23T22:51:23.251Z,14.40
2022-11-23T22:53:57.449Z,14.40
2022-11-23T22:56:24.355Z,15.32
2022-11-23T22:58:50.958Z,16.40
2022-11-23T23:01:29.859Z,15.25
2022-11-23T23:03:59.097Z,16.10
2022-11-23T23:06:28.380Z,15.18
2022-11-23T23:08:59.543Z,15.77
2022-11-23T23:11:28.679Z,15.90
2022-11-23T23:13:55.739Z,16.42
2022-11-23T23:16:22.545Z,16.15
2022-11-23T23:18:49.257Z,15.55
2022-11-23T23:21:21.124Z,17.10
2022-11-23T23:23:52.470Z,18.85
2022-11-23T23:26:21.733Z,17.80
2022-11-23T23:28:49.102Z,18.73
2022-11-23T23:31:17.332Z,18.38
2022-11-23T23:33:45.782Z,19.02
2022-11-23T23:36:17.662Z,19.30
2022-11-23T23:38:44.361Z,19.60
2022-11-23T23:41:12.147Z,19.80
2022-11-23T23:43:39.587Z,17.45
2022-11-23T23:46:08.698Z,16.90
2022-11-23T23:48:37.090Z,16.88
2022-11-23T23:51:15.899Z,16.65
2022-11-23T23:53:43.412Z,16.85
2022-11-23T23:56:15.841Z,16.58
2022-11-23T23:58:43.089Z,17.20
